Time;durP1;ratioP1;P1;durP2;ratioP2;P2;SDS_P1;SDS_P2;PMS_P1;PMS_P2;Temp;Humidity;BMP_temperature;BMP_pressure;BME280_temperature;BME280_humidity;BME280_pressure;Samples;Min_cycle;Max_cycle;Signal;HPM_P1;HPM_P2
2022/09/09 02:59:07;;;;;;;3.23;1.73;;;;;;;;;;5029553;22;20591;-83
2022/09/09 03:01:35;;;;;;;2.87;1.23;;;;;;;;;;5001995;28;20219;-84
2022/09/09 03:04:04;;;;;;;4.20;1.57;;;;;;;;;;4996713;28;20231;-84
2022/09/09 03:06:31;;;;;;;1.83;1.10;;;;;;;;;;5012940;28;20671;-84
2022/09/09 03:09:00;;;;;;;2.30;1.30;;;;;;;;;;5026395;28;20243;-84
2022/09/09 03:11:27;;;;;;;3.23;1.10;;;;;;;;;;4997098;28;20212;-83
2022/09/09 03:13:55;;;;;;;2.60;1.30;;;;;;;;;;5017662;28;20258;-84
2022/09/09 03:16:24;;;;;;;2.90;1.50;;;;;;;;;;5024327;28;20277;-83
2022/09/09 03:18:51;;;;;;;1.80;1.10;;;;;;;;;;5010955;28;20606;-84
2022/09/09 03:21:18;;;;;;;2.83;1.30;;;;;;;;;;5009660;28;20675;-83
2022/09/09 03:23:45;;;;;;;2.33;1.30;;;;;;;;;;5014741;28;20803;-84
2022/09/09 03:26:14;;;;;;;1.83;1.20;;;;;;;;;;5027302;28;20194;-83
2022/09/09 03:28:42;;;;;;;3.63;1.30;;;;;;;;;;5034461;28;20621;-86
2022/09/09 03:31:10;;;;;;;2.97;1.17;;;;;;;;;;5034478;28;20211;-84
2022/09/09 03:33:38;;;;;;;17.00;2.97;;;;;;;;;;5034836;28;20207;-85
2022/09/09 03:36:07;;;;;;;2.53;1.70;;;;;;;;;;5034488;28;20226;-86
2022/09/09 03:38:34;;;;;;;6.53;1.13;;;;;;;;;;5034318;28;20321;-86
2022/09/09 03:41:02;;;;;;;2.67;1.23;;;;;;;;;;5014110;28;20262;-84
2022/09/09 03:43:30;;;;;;;2.33;1.20;;;;;;;;;;5014733;28;20261;-84
2022/09/09 03:45:57;;;;;;;2.00;1.20;;;;;;;;;;5033138;28;20714;-84
2022/09/09 03:48:25;;;;;;;2.17;1.37;;;;;;;;;;5034524;28;20254;-83
2022/09/09 03:50:54;;;;;;;2.33;1.17;;;;;;;;;;5019771;28;20673;-79
2022/09/09 03:53:22;;;;;;;4.27;0.97;;;;;;;;;;5021519;28;20206;-79
2022/09/09 03:55:50;;;;;;;1.60;1.00;;;;;;;;;;5038195;28;20718;-80
2022/09/09 03:58:18;;;;;;;2.70;1.10;;;;;;;;;;5040503;28;20246;-82
2022/09/09 04:00:45;;;;;;;1.60;1.00;;;;;;;;;;5017888;28;20303;-79
2022/09/09 04:03:15;;;;;;;3.07;1.23;;;;;;;;;;5001176;28;20208;-83
2022/09/09 04:05:42;;;;;;;3.70;1.47;;;;;;;;;;5000325;28;20289;-79
2022/09/09 04:08:11;;;;;;;2.47;1.77;;;;;;;;;;5001090;28;20228;-82
2022/09/09 04:10:41;;;;;;;2.70;1.80;;;;;;;;;;4998043;28;20260;-87
2022/09/09 04:13:08;;;;;;;1.93;1.37;;;;;;;;;;4995369;28;20192;-86
2022/09/09 04:15:36;;;;;;;2.53;1.30;;;;;;;;;;4994101;28;20243;-86
2022/09/09 04:18:03;;;;;;;3.00;1.20;;;;;;;;;;4994500;28;20227;-85
2022/09/09 04:20:30;;;;;;;2.23;1.23;;;;;;;;;;4993797;28;20240;-84
2022/09/09 04:22:57;;;;;;;2.60;1.40;;;;;;;;;;4994539;28;20215;-85
2022/09/09 04:25:25;;;;;;;2.30;1.40;;;;;;;;;;4994258;28;20251;-84
2022/09/09 04:27:55;;;;;;;2.27;1.50;;;;;;;;;;4994052;28;20224;-85
2022/09/09 04:30:22;;;;;;;1.87;1.60;;;;;;;;;;4993970;28;20727;-86
2022/09/09 04:32:49;;;;;;;1.43;0.90;;;;;;;;;;4992482;28;20216;-85
2022/09/09 04:35:16;;;;;;;2.83;1.30;;;;;;;;;;4993889;28;20298;-85
2022/09/09 04:37:44;;;;;;;2.80;1.17;;;;;;;;;;4993837;28;20224;-85
2022/09/09 04:40:11;;;;;;;3.20;1.27;;;;;;;;;;4993597;28;20699;-87
2022/09/09 04:42:43;;;;;;;1.73;1.27;;;;;;;;;;4993901;28;20269;-87
2022/09/09 04:45:13;;;;;;;1.17;1.00;;;;;;;;;;4993638;28;20976;-86
2022/09/09 04:47:41;;;;;;;2.20;1.23;;;;;;;;;;4994280;28;20250;-87
2022/09/09 04:50:08;;;;;;;2.23;1.23;;;;;;;;;;4992876;28;20323;-86
2022/09/09 04:52:36;;;;;;;2.00;1.13;;;;;;;;;;4993477;28;20231;-84
2022/09/09 04:55:04;;;;;;;1.53;1.33;;;;;;;;;;4993432;28;20247;-86
2022/09/09 04:57:31;;;;;;;3.63;1.37;;;;;;;;;;4993512;28;20730;-86
2022/09/09 05:00:00;;;;;;;2.70;1.37;;;;;;;;;;4993131;28;20331;-85
2022/09/09 05:02:27;;;;;;;2.97;1.30;;;;;;;;;;4993881;28;20242;-85
2022/09/09 05:04:55;;;;;;;2.50;1.27;;;;;;;;;;4993349;28;20239;-86
2022/09/09 05:07:22;;;;;;;2.80;1.33;;;;;;;;;;4993671;28;20379;-85
2022/09/09 05:09:49;;;;;;;1.10;1.10;;;;;;;;;;4993639;28;20240;-85
2022/09/09 05:12:17;;;;;;;1.87;1.13;;;;;;;;;;4993769;28;20210;-84
2022/09/09 05:14:44;;;;;;;2.90;1.30;;;;;;;;;;4993782;28;20227;-84
2022/09/09 05:17:13;;;;;;;2.77;1.20;;;;;;;;;;4993900;28;20559;-85
2022/09/09 05:19:40;;;;;;;3.47;1.30;;;;;;;;;;4993139;28;20247;-83
2022/09/09 05:22:07;;;;;;;1.90;1.40;;;;;;;;;;4994048;28;20214;-85
2022/09/09 05:24:34;;;;;;;2.40;1.30;;;;;;;;;;4993256;28;20252;-83
2022/09/09 05:27:02;;;;;;;2.60;1.30;;;;;;;;;;4994300;28;20212;-85
2022/09/09 05:29:29;;;;;;;2.53;1.20;;;;;;;;;;4994717;28;20326;-85
2022/09/09 05:31:56;;;;;;;1.27;1.10;;;;;;;;;;4994105;28;20207;-85
2022/09/09 05:34:25;;;;;;;5.07;1.40;;;;;;;;;;4992348;28;20236;-86
2022/09/09 05:36:52;;;;;;;4.93;1.30;;;;;;;;;;4987985;28;20215;-86
2022/09/09 05:39:19;;;;;;;2.33;1.33;;;;;;;;;;4991809;28;20679;-86
2022/09/09 05:41:48;;;;;;;2.70;1.37;;;;;;;;;;4995778;28;20188;-81
2022/09/09 05:44:15;;;;;;;2.60;1.20;;;;;;;;;;5002650;28;20210;-82
2022/09/09 05:46:42;;;;;;;2.97;1.27;;;;;;;;;;5011090;28;20628;-87
2022/09/09 05:49:10;;;;;;;1.33;1.00;;;;;;;;;;5013186;28;20318;-87
2022/09/09 05:51:38;;;;;;;3.50;1.00;;;;;;;;;;5012988;28;20216;-85
2022/09/09 05:54:06;;;;;;;1.87;1.17;;;;;;;;;;5012594;28;20235;-86
2022/09/09 05:56:33;;;;;;;3.80;1.20;;;;;;;;;;5013484;28;20223;-86
2022/09/09 05:59:00;;;;;;;4.17;1.20;;;;;;;;;;5012588;28;20235;-87
2022/09/09 06:01:28;;;;;;;2.17;1.23;;;;;;;;;;5016093;28;20210;-86
2022/09/09 06:03:56;;;;;;;4.57;1.23;;;;;;;;;;5016980;28;20211;-87
2022/09/09 06:06:24;;;;;;;2.27;1.03;;;;;;;;;;5024620;28;20203;-86
2022/09/09 06:08:53;;;;;;;2.27;1.10;;;;;;;;;;5015488;28;20231;-86
2022/09/09 06:11:22;;;;;;;3.40;1.20;;;;;;;;;;5010325;28;20211;-85
2022/09/09 06:13:51;;;;;;;3.37;1.30;;;;;;;;;;5003775;28;20251;-87
2022/09/09 06:16:19;;;;;;;1.07;0.97;;;;;;;;;;4997220;28;20307;-86
2022/09/09 06:18:48;;;;;;;4.53;1.50;;;;;;;;;;4996469;28;20735;-86
2022/09/09 06:21:16;;;;;;;2.17;1.20;;;;;;;;;;4997390;28;20204;-87
2022/09/09 06:23:44;;;;;;;2.57;0.90;;;;;;;;;;4996422;28;20629;-85
2022/09/09 06:26:14;;;;;;;1.77;1.30;;;;;;;;;;4997311;28;20303;-87
2022/09/09 06:28:42;;;;;;;3.37;1.00;;;;;;;;;;4997509;28;20220;-87
2022/09/09 06:31:10;;;;;;;0.70;0.70;;;;;;;;;;4996747;28;20215;-87
2022/09/09 06:33:40;;;;;;;1.70;1.03;;;;;;;;;;4997113;28;20204;-86
2022/09/09 06:36:08;;;;;;;1.67;0.97;;;;;;;;;;5016166;28;20747;-87
2022/09/09 06:38:35;;;;;;;3.90;1.00;;;;;;;;;;5016905;28;20226;-87
2022/09/09 06:41:03;;;;;;;3.17;1.50;;;;;;;;;;4998638;28;20236;-85
2022/09/09 06:43:31;;;;;;;2.37;1.00;;;;;;;;;;4999539;28;20211;-87
2022/09/09 06:45:59;;;;;;;1.63;1.13;;;;;;;;;;5000116;28;20850;-85
2022/09/09 06:48:27;;;;;;;3.77;1.40;;;;;;;;;;5009639;28;20318;-86
2022/09/09 06:51:02;;;;;;;5.40;1.70;;;;;;;;;;4997533;28;20227;-85
2022/09/09 06:53:29;;;;;;;1.33;1.00;;;;;;;;;;4997824;28;20766;-86
2022/09/09 06:55:56;;;;;;;2.47;1.57;;;;;;;;;;4996272;28;20236;-87
2022/09/09 06:58:23;;;;;;;4.63;1.40;;;;;;;;;;4996126;28;20711;-86
2022/09/09 07:00:52;;;;;;;2.80;1.20;;;;;;;;;;4995661;28;20231;-87
2022/09/09 07:03:19;;;;;;;2.80;1.10;;;;;;;;;;4996379;28;20208;-86
2022/09/09 07:05:55;;;;;;;7.07;1.20;;;;;;;;;;4995517;28;20315;-87
2022/09/09 07:08:22;;;;;;;1.97;1.30;;;;;;;;;;4996215;28;20230;-87
2022/09/09 07:10:49;;;;;;;2.43;1.13;;;;;;;;;;5013459;28;20235;-85
2022/09/09 07:13:16;;;;;;;2.47;1.20;;;;;;;;;;5022563;28;20214;-84
2022/09/09 07:15:44;;;;;;;4.00;1.57;;;;;;;;;;5007232;28;20254;-88
2022/09/09 07:18:12;;;;;;;3.57;1.20;;;;;;;;;;4998566;28;20235;-87
2022/09/09 07:20:39;;;;;;;2.20;1.27;;;;;;;;;;5014519;28;20612;-87
2022/09/09 07:23:06;;;;;;;5.17;1.17;;;;;;;;;;5019091;28;20233;-87
2022/09/09 07:25:33;;;;;;;2.37;1.20;;;;;;;;;;5016360;28;20640;-83
2022/09/09 07:28:01;;;;;;;4.43;1.60;;;;;;;;;;5021390;28;20227;-88
2022/09/09 07:30:28;;;;;;;2.00;1.30;;;;;;;;;;5003446;28;20219;-87
2022/09/09 07:32:56;;;;;;;2.70;1.20;;;;;;;;;;4998257;28;20215;-87
2022/09/09 07:35:26;;;;;;;2.72;1.70;;;;;;;;;;5008871;28;20726;-87
2022/09/09 07:37:53;;;;;;;3.10;1.20;;;;;;;;;;5007604;28;20227;-87
2022/09/09 07:40:21;;;;;;;11.80;1.42;;;;;;;;;;5000751;28;20236;-87
2022/09/09 07:42:49;;;;;;;5.65;1.60;;;;;;;;;;4994958;28;20260;-87
2022/09/09 07:45:16;;;;;;;3.38;1.33;;;;;;;;;;5008017;28;20231;-87
2022/09/09 07:47:43;;;;;;;4.65;1.33;;;;;;;;;;5015190;28;20239;-88
2022/09/09 07:50:11;;;;;;;2.30;0.90;;;;;;;;;;5001809;28;20239;-86
2022/09/09 07:52:39;;;;;;;3.75;1.30;;;;;;;;;;4996133;28;20604;-86
2022/09/09 07:55:06;;;;;;;2.67;1.00;;;;;;;;;;5006913;28;20289;-87
2022/09/09 07:57:34;;;;;;;3.42;1.50;;;;;;;;;;5015137;28;20242;-87
2022/09/09 08:00:01;;;;;;;6.43;1.60;;;;;;;;;;5003665;28;20239;-86
2022/09/09 08:02:29;;;;;;;2.65;1.25;;;;;;;;;;4995272;28;20203;-87
2022/09/09 08:04:56;;;;;;;3.08;1.30;;;;;;;;;;5005156;28;20261;-88
2022/09/09 08:07:24;;;;;;;2.00;1.05;;;;;;;;;;5014965;28;20241;-87
2022/09/09 08:09:54;;;;;;;2.60;1.23;;;;;;;;;;5004761;28;20236;-86
2022/09/09 08:12:21;;;;;;;4.30;1.23;;;;;;;;;;4995537;28;20212;-85
2022/09/09 08:14:49;;;;;;;3.08;1.33;;;;;;;;;;5004817;28;20230;-87
2022/09/09 08:17:16;;;;;;;2.95;1.50;;;;;;;;;;5014798;28;20227;-88
2022/09/09 08:19:44;;;;;;;3.38;1.33;;;;;;;;;;5005903;28;20247;-85
2022/09/09 08:22:11;;;;;;;2.10;0.98;;;;;;;;;;4998017;28;20204;-83
2022/09/09 08:24:39;;;;;;;3.22;1.20;;;;;;;;;;5020315;28;20231;-86
2022/09/09 08:27:07;;;;;;;4.03;1.35;;;;;;;;;;5025351;28;20214;-86
2022/09/09 08:29:34;;;;;;;4.40;1.25;;;;;;;;;;5011739;28;20232;-86
2022/09/09 08:32:01;;;;;;;2.72;1.17;;;;;;;;;;4999771;28;20212;-85
2022/09/09 08:34:30;;;;;;;1.42;0.90;;;;;;;;;;5006086;28;20251;-86
2022/09/09 08:36:57;;;;;;;3.63;1.40;;;;;;;;;;5018802;28;20679;-87
2022/09/09 08:39:24;;;;;;;2.75;0.85;;;;;;;;;;5011698;28;20247;-85
2022/09/09 08:42:13;;;;;;;2.60;1.27;;;;;;;;;;4991252;28;20635;-85
2022/09/09 08:44:50;;;;;;;4.47;1.52;;;;;;;;;;5008656;28;20259;-85
2022/09/09 08:47:21;;;;;;;3.22;1.30;;;;;;;;;;5018369;28;20210;-85
2022/09/09 08:49:59;;;;;;;3.55;1.20;;;;;;;;;;5009142;28;20228;-84
2022/09/09 08:52:28;;;;;;;2.55;0.82;;;;;;;;;;4999125;28;20208;-87
2022/09/09 08:54:57;;;;;;;3.40;1.27;;;;;;;;;;5008079;28;20235;-87
2022/09/09 08:59:55;;;;;;;2.53;1.05;;;;;;;;;;5018056;22;20220;-83
2022/09/09 09:02:24;;;;;;;3.50;1.15;;;;;;;;;;4992426;28;20242;-83
2022/09/09 09:05:00;;;;;;;4.50;1.27;;;;;;;;;;4992140;28;20737;-83
2022/09/09 09:07:33;;;;;;;4.65;1.65;;;;;;;;;;4992840;28;20214;-83
2022/09/09 09:10:03;;;;;;;12.13;2.08;;;;;;;;;;4992612;28;20231;-83
2022/09/09 09:12:32;;;;;;;5.55;1.15;;;;;;;;;;4992672;28;20297;-83
2022/09/09 09:15:00;;;;;;;5.15;1.50;;;;;;;;;;4991979;28;20302;-83
2022/09/09 09:17:31;;;;;;;5.28;1.42;;;;;;;;;;4993845;28;20211;-83
2022/09/09 09:19:59;;;;;;;2.35;0.88;;;;;;;;;;4991993;28;20243;-83
2022/09/09 09:22:31;;;;;;;2.13;0.98;;;;;;;;;;4992346;28;20212;-84
2022/09/09 09:25:04;;;;;;;2.88;1.42;;;;;;;;;;5015477;28;20238;-83
2022/09/09 09:27:33;;;;;;;1.85;1.10;;;;;;;;;;5031971;28;20311;-83
2022/09/09 09:30:02;;;;;;;3.75;0.90;;;;;;;;;;5020281;28;20231;-83
2022/09/09 09:32:32;;;;;;;4.28;1.15;;;;;;;;;;5011865;28;20238;-83
2022/09/09 09:35:04;;;;;;;2.80;1.42;;;;;;;;;;5022522;28;20234;-83
2022/09/09 09:37:33;;;;;;;3.83;1.17;;;;;;;;;;5032040;28;20248;-83
2022/09/09 09:40:09;;;;;;;3.03;1.40;;;;;;;;;;5020046;28;20330;-83
2022/09/09 09:42:37;;;;;;;4.25;1.40;;;;;;;;;;5011727;28;20222;-83
2022/09/09 09:45:18;;;;;;;4.10;1.10;;;;;;;;;;5023332;28;20702;-83
2022/09/09 09:47:45;;;;;;;4.57;1.40;;;;;;;;;;5031756;28;20191;-84
2022/09/09 09:50:19;;;;;;;5.15;1.10;;;;;;;;;;5018414;28;20314;-83
2022/09/09 09:52:55;;;;;;;5.60;0.95;;;;;;;;;;5011704;28;20279;-83
2022/09/09 09:55:24;;;;;;;2.47;1.20;;;;;;;;;;5025782;28;20670;-84
2022/09/09 09:57:51;;;;;;;5.75;1.52;;;;;;;;;;5031852;28;20238;-83
2022/09/09 10:00:20;;;;;;;3.70;1.05;;;;;;;;;;5016373;28;20239;-84
2022/09/09 10:02:48;;;;;;;2.20;1.08;;;;;;;;;;4992088;28;20213;-81
2022/09/09 10:05:16;;;;;;;4.05;1.23;;;;;;;;;;4991541;28;20780;-82
2022/09/09 10:07:45;;;;;;;4.68;1.33;;;;;;;;;;4992299;28;20238;-82
2022/09/09 10:10:15;;;;;;;1.33;0.63;;;;;;;;;;4991527;28;20235;-82
2022/09/09 10:12:48;;;;;;;3.85;0.93;;;;;;;;;;4991900;28;20215;-83
2022/09/09 10:15:23;;;;;;;3.35;1.13;;;;;;;;;;4991676;28;20770;-84
2022/09/09 10:17:55;;;;;;;3.22;0.80;;;;;;;;;;4992152;28;20235;-84
2022/09/09 10:20:27;;;;;;;1.13;0.70;;;;;;;;;;4991761;28;20643;-84
2022/09/09 10:23:01;;;;;;;2.40;0.82;;;;;;;;;;4992133;28;20196;-84
2022/09/09 10:25:34;;;;;;;3.88;1.17;;;;;;;;;;4991806;28;20243;-84
2022/09/09 10:28:19;;;;;;;1.83;0.95;;;;;;;;;;4996799;28;20232;-85
2022/09/09 10:30:51;;;;;;;1.63;0.90;;;;;;;;;;5028614;28;20238;-84
2022/09/09 10:33:23;;;;;;;4.95;1.15;;;;;;;;;;5031625;28;20187;-84
2022/09/09 10:35:55;;;;;;;4.45;1.20;;;;;;;;;;5018527;28;20243;-85
2022/09/09 10:38:27;;;;;;;3.63;0.85;;;;;;;;;;5013562;28;20664;-86
2022/09/09 10:41:02;;;;;;;1.10;0.70;;;;;;;;;;5031047;28;20246;-84
2022/09/09 10:43:37;;;;;;;2.25;0.73;;;;;;;;;;5029534;28;20204;-84
2022/09/09 10:46:08;;;;;;;1.00;0.70;;;;;;;;;;4999945;28;20302;-84
2022/09/09 10:48:45;;;;;;;4.10;1.15;;;;;;;;;;5002572;28;20259;-84
2022/09/09 10:51:22;;;;;;;1.77;1.08;;;;;;;;;;5034953;28;20210;-84
2022/09/09 10:53:53;;;;;;;2.05;0.98;;;;;;;;;;5032723;28;20213;-84
2022/09/09 10:56:25;;;;;;;3.85;1.35;;;;;;;;;;5015050;28;20203;-83
2022/09/09 10:58:54;;;;;;;3.90;1.42;;;;;;;;;;4997420;28;20236;-83
2022/09/09 11:01:24;;;;;;;4.88;1.25;;;;;;;;;;5011605;28;20223;-83
2022/09/09 11:03:56;;;;;;;2.90;1.20;;;;;;;;;;5013596;28;20246;-82
2022/09/09 11:06:27;;;;;;;5.15;1.10;;;;;;;;;;4998704;28;20231;-83
2022/09/09 11:08:54;;;;;;;2.50;0.80;;;;;;;;;;4994378;28;20243;-85
2022/09/09 11:11:26;;;;;;;2.63;1.10;;;;;;;;;;4995046;28;20208;-84
2022/09/09 11:13:55;;;;;;;1.08;0.93;;;;;;;;;;4991532;28;20687;-84
2022/09/09 11:16:27;;;;;;;2.88;0.95;;;;;;;;;;4995121;28;20204;-84
2022/09/09 11:18:57;;;;;;;2.80;0.80;;;;;;;;;;4997034;28;20227;-83
2022/09/09 11:21:26;;;;;;;2.08;0.90;;;;;;;;;;5014693;28;20227;-85
2022/09/09 11:23:55;;;;;;;3.35;1.08;;;;;;;;;;5013856;28;20204;-84
2022/09/09 11:26:29;;;;;;;2.72;1.00;;;;;;;;;;5014906;28;20266;-84
2022/09/09 11:29:03;;;;;;;1.65;0.63;;;;;;;;;;5013821;28;20231;-84
2022/09/09 11:31:42;;;;;;;2.47;0.90;;;;;;;;;;5014183;28;20203;-84
2022/09/09 11:34:18;;;;;;;3.45;0.90;;;;;;;;;;5009463;28;20232;-84
2022/09/09 11:36:53;;;;;;;1.85;0.77;;;;;;;;;;4994891;28;20196;-84
2022/09/09 11:39:38;;;;;;;0.88;0.60;;;;;;;;;;4986900;28;20240;-84
2022/09/09 11:42:09;;;;;;;2.85;1.27;;;;;;;;;;4988687;28;20216;-85
2022/09/09 11:44:36;;;;;;;2.38;0.82;;;;;;;;;;4994754;28;20318;-84
2022/09/09 11:47:05;;;;;;;2.58;1.20;;;;;;;;;;4995144;28;20196;-85
2022/09/09 11:49:41;;;;;;;4.20;1.02;;;;;;;;;;4994239;28;20236;-84
2022/09/09 11:52:12;;;;;;;2.92;1.05;;;;;;;;;;5004828;28;20656;-83
2022/09/09 11:54:47;;;;;;;3.35;2.28;;;;;;;;;;4995609;28;20673;-83
2022/09/09 11:57:22;;;;;;;5.97;0.95;;;;;;;;;;4994680;28;20203;-84
2022/09/09 11:59:52;;;;;;;1.77;1.10;;;;;;;;;;4982152;28;20286;-84
2022/09/09 12:02:24;;;;;;;2.28;0.80;;;;;;;;;;4994100;28;20212;-82
2022/09/09 12:04:56;;;;;;;2.95;1.40;;;;;;;;;;4976606;28;20603;-84
2022/09/09 12:07:31;;;;;;;1.88;0.93;;;;;;;;;;4994852;28;20201;-82
2022/09/09 12:10:00;;;;;;;1.55;0.93;;;;;;;;;;5016301;28;20715;-84
2022/09/09 12:12:32;;;;;;;2.33;0.85;;;;;;;;;;5013259;28;20211;-84
2022/09/09 12:15:00;;;;;;;4.38;0.77;;;;;;;;;;4984780;28;20311;-84
2022/09/09 12:17:30;;;;;;;2.15;0.70;;;;;;;;;;4974913;28;20209;-84
2022/09/09 12:20:07;;;;;;;5.38;1.30;;;;;;;;;;4974226;28;20641;-83
2022/09/09 12:22:38;;;;;;;1.50;0.80;;;;;;;;;;4974572;28;20698;-84
2022/09/09 12:25:09;;;;;;;2.15;0.93;;;;;;;;;;4973617;28;20240;-84
2022/09/09 12:27:38;;;;;;;3.28;0.80;;;;;;;;;;4974533;28;20204;-85
2022/09/09 12:30:06;;;;;;;3.20;1.08;;;;;;;;;;4974269;28;20232;-83
2022/09/09 12:32:34;;;;;;;1.33;0.82;;;;;;;;;;4993839;28;20239;-83
2022/09/09 12:35:03;;;;;;;2.15;0.90;;;;;;;;;;4993360;28;20267;-83
2022/09/09 12:37:34;;;;;;;2.85;1.10;;;;;;;;;;4994124;28;20207;-84
2022/09/09 12:40:03;;;;;;;4.63;1.15;;;;;;;;;;4993633;28;20244;-83
2022/09/09 12:42:32;;;;;;;3.65;1.10;;;;;;;;;;4994216;28;20435;-83
2022/09/09 12:45:01;;;;;;;1.63;0.82;;;;;;;;;;4993321;28;20243;-84
2022/09/09 12:47:32;;;;;;;2.63;1.05;;;;;;;;;;4993903;28;20208;-84
2022/09/09 12:50:00;;;;;;;2.65;0.85;;;;;;;;;;4993032;28;20643;-83
2022/09/09 12:52:30;;;;;;;2.88;0.70;;;;;;;;;;4993438;28;20204;-84
2022/09/09 12:54:58;;;;;;;3.22;1.13;;;;;;;;;;4993323;28;20286;-84
2022/09/09 12:57:26;;;;;;;3.40;0.90;;;;;;;;;;4993655;28;20196;-82
2022/09/09 12:59:54;;;;;;;1.90;0.82;;;;;;;;;;4992654;28;20236;-85
2022/09/09 13:02:22;;;;;;;3.97;0.90;;;;;;;;;;4993731;28;20650;-84
2022/09/09 13:04:50;;;;;;;3.33;0.98;;;;;;;;;;4990734;28;20246;-82
2022/09/09 13:08:54;;;;;;;4.32;1.13;;;;;;;;;;5077839;28;20609;-83
2022/09/09 13:11:23;;;;;;;2.47;0.98;;;;;;;;;;5044539;28;20261;-83
2022/09/09 13:13:54;;;;;;;1.95;0.70;;;;;;;;;;5058017;28;20273;-82
2022/09/09 13:16:22;;;;;;;1.75;0.70;;;;;;;;;;5047989;28;20604;-84
2022/09/09 13:18:50;;;;;;;3.75;1.00;;;;;;;;;;5048803;28;20574;-81
2022/09/09 13:21:17;;;;;;;2.40;0.73;;;;;;;;;;5049112;28;20205;-82
2022/09/09 13:23:49;;;;;;;2.42;0.75;;;;;;;;;;5049118;28;20289;-83
2022/09/09 13:26:25;;;;;;;0.68;0.68;;;;;;;;;;5048033;28;20213;-82
2022/09/09 13:28:53;;;;;;;1.95;1.60;;;;;;;;;;5047949;28;20230;-83
2022/09/09 13:31:22;;;;;;;1.23;0.73;;;;;;;;;;5048940;28;20292;-85
2022/09/09 13:33:49;;;;;;;2.40;0.68;;;;;;;;;;5048426;28;20206;-84
2022/09/09 13:36:17;;;;;;;1.65;0.60;;;;;;;;;;5049011;28;20670;-82
2022/09/09 13:38:55;;;;;;;1.35;0.93;;;;;;;;;;5048594;28;20251;-82
2022/09/09 13:41:23;;;;;;;2.15;0.80;;;;;;;;;;5049154;28;20221;-84
2022/09/09 13:43:52;;;;;;;1.20;0.50;;;;;;;;;;5048803;28;20190;-85
2022/09/09 13:46:27;;;;;;;2.85;0.90;;;;;;;;;;5048795;28;20218;-83
2022/09/09 13:48:57;;;;;;;2.83;0.88;;;;;;;;;;5050960;28;20251;-83
2022/09/09 13:51:29;;;;;;;0.65;0.50;;;;;;;;;;5049897;28;20210;-83
2022/09/09 13:53:57;;;;;;;3.10;0.90;;;;;;;;;;5049020;28;20182;-83
2022/09/09 13:56:24;;;;;;;1.88;0.45;;;;;;;;;;5049994;28;20206;-83
2022/09/09 13:58:53;;;;;;;1.52;0.82;;;;;;;;;;5047855;28;20222;-83
2022/09/09 14:01:20;;;;;;;1.60;0.80;;;;;;;;;;5048430;28;20194;-83
2022/09/09 14:03:47;;;;;;;2.22;1.27;;;;;;;;;;5047291;28;20221;-83
2022/09/09 14:06:14;;;;;;;2.72;0.90;;;;;;;;;;5048611;28;20198;-82
2022/09/09 14:08:41;;;;;;;2.08;0.80;;;;;;;;;;5047669;28;20660;-82
2022/09/09 14:11:12;;;;;;;2.67;0.95;;;;;;;;;;5048009;28;20210;-83
2022/09/09 14:13:39;;;;;;;2.00;0.68;;;;;;;;;;5048037;28;20194;-83
2022/09/09 14:16:09;;;;;;;1.80;0.75;;;;;;;;;;5048540;28;20202;-85
2022/09/09 14:18:37;;;;;;;1.73;0.82;;;;;;;;;;5044000;28;20229;-84
2022/09/09 14:21:04;;;;;;;1.50;0.75;;;;;;;;;;5034290;28;20421;-84
2022/09/09 14:23:32;;;;;;;1.77;0.73;;;;;;;;;;5035481;28;20187;-82
2022/09/09 14:25:59;;;;;;;0.52;0.52;;;;;;;;;;5034254;28;20235;-84
2022/09/09 14:28:26;;;;;;;1.35;0.60;;;;;;;;;;5035156;28;20237;-84
2022/09/09 14:30:53;;;;;;;2.15;0.75;;;;;;;;;;5034119;28;20266;-85
2022/09/09 14:33:22;;;;;;;0.95;0.73;;;;;;;;;;5034854;28;20206;-85
2022/09/09 14:35:49;;;;;;;1.70;0.57;;;;;;;;;;5034226;28;20652;-85
2022/09/09 14:38:16;;;;;;;0.65;0.60;;;;;;;;;;5022562;28;20232;-84
2022/09/09 14:40:47;;;;;;;0.80;0.60;;;;;;;;;;5024605;28;20707;-84
2022/09/09 14:43:14;;;;;;;0.88;0.60;;;;;;;;;;5034425;28;20195;-83
2022/09/09 14:45:43;;;;;;;0.95;0.68;;;;;;;;;;5034294;28;20249;-83
2022/09/09 14:48:10;;;;;;;2.22;0.65;;;;;;;;;;5034696;28;20227;-83
2022/09/09 14:50:39;;;;;;;1.02;0.70;;;;;;;;;;5044668;28;20234;-83
2022/09/09 14:53:06;;;;;;;1.33;0.70;;;;;;;;;;5034440;28;20678;-84
2022/09/09 14:55:34;;;;;;;1.73;0.50;;;;;;;;;;5033945;28;20238;-83
2022/09/09 14:58:01;;;;;;;0.85;0.60;;;;;;;;;;5034195;28;20222;-82
2022/09/09 15:00:28;;;;;;;2.55;0.60;;;;;;;;;;5034203;28;20230;-83
2022/09/09 15:02:55;;;;;;;1.35;0.73;;;;;;;;;;5034380;28;20215;-83
2022/09/09 15:05:22;;;;;;;4.00;1.08;;;;;;;;;;5033716;28;20235;-82
2022/09/09 15:07:51;;;;;;;0.70;0.65;;;;;;;;;;5033716;28;20226;-83
2022/09/09 15:10:18;;;;;;;0.88;0.57;;;;;;;;;;5033632;28;20234;-84
2022/09/09 15:12:45;;;;;;;1.65;0.63;;;;;;;;;;5034268;28;20197;-83
2022/09/09 15:15:13;;;;;;;1.80;0.65;;;;;;;;;;5033297;28;20243;-83
2022/09/09 15:17:40;;;;;;;1.90;0.70;;;;;;;;;;5034167;28;20280;-82
2022/09/09 15:20:07;;;;;;;1.20;0.80;;;;;;;;;;5033294;28;20654;-82
2022/09/09 15:22:36;;;;;;;0.98;0.52;;;;;;;;;;5033813;28;20287;-82
2022/09/09 15:25:05;;;;;;;1.17;0.52;;;;;;;;;;5033834;28;20588;-83
2022/09/09 15:27:34;;;;;;;1.10;0.50;;;;;;;;;;5033761;28;20297;-83
2022/09/09 15:30:01;;;;;;;0.57;0.57;;;;;;;;;;5033353;28;20317;-82
2022/09/09 15:32:29;;;;;;;0.50;0.50;;;;;;;;;;5033305;28;20623;-83
2022/09/09 15:34:56;;;;;;;0.47;0.40;;;;;;;;;;5033618;28;20663;-83
2022/09/09 15:37:24;;;;;;;1.55;0.70;;;;;;;;;;5034655;28;20207;-82
2022/09/09 15:39:51;;;;;;;1.20;0.60;;;;;;;;;;5033885;28;20238;-83
2022/09/09 15:42:21;;;;;;;1.88;0.70;;;;;;;;;;5038968;28;20214;-83
2022/09/09 15:44:48;;;;;;;1.80;0.80;;;;;;;;;;5052095;28;20234;-83
2022/09/09 15:47:16;;;;;;;2.30;0.85;;;;;;;;;;5045191;28;20600;-83
2022/09/09 15:49:43;;;;;;;2.05;0.88;;;;;;;;;;5033078;28;20269;-82
2022/09/09 15:52:11;;;;;;;1.98;1.08;;;;;;;;;;5031045;28;20211;-84
2022/09/09 15:54:38;;;;;;;3.60;0.90;;;;;;;;;;5032505;28;20226;-83
2022/09/09 15:57:06;;;;;;;1.02;0.50;;;;;;;;;;5033485;28;20765;-82
2022/09/09 15:59:35;;;;;;;1.13;0.73;;;;;;;;;;5033147;28;20230;-83
2022/09/09 16:02:02;;;;;;;2.03;0.77;;;;;;;;;;5033689;28;20194;-82
2022/09/09 16:04:29;;;;;;;1.50;0.98;;;;;;;;;;5032070;28;20280;-82
2022/09/09 16:06:58;;;;;;;1.17;0.60;;;;;;;;;;5033548;28;20226;-80
2022/09/09 16:09:26;;;;;;;2.90;1.20;;;;;;;;;;5032747;28;20235;-81
2022/09/09 16:11:53;;;;;;;2.45;0.70;;;;;;;;;;5033499;28;20707;-81
2022/09/09 16:14:21;;;;;;;0.70;0.70;;;;;;;;;;5033353;28;20253;-82
2022/09/09 16:16:50;;;;;;;3.10;0.75;;;;;;;;;;5033548;28;20211;-81
2022/09/09 16:19:17;;;;;;;2.58;0.88;;;;;;;;;;5033049;28;20234;-82
2022/09/09 16:21:45;;;;;;;1.63;0.88;;;;;;;;;;5032883;28;20210;-82
2022/09/09 16:24:13;;;;;;;1.75;0.88;;;;;;;;;;5032239;28;20317;-82
2022/09/09 16:26:42;;;;;;;1.90;0.65;;;;;;;;;;5033464;28;20210;-82
2022/09/09 16:29:09;;;;;;;0.63;0.63;;;;;;;;;;5032426;28;20246;-84
2022/09/09 16:31:37;;;;;;;2.28;1.08;;;;;;;;;;5032654;28;20206;-84
2022/09/09 16:34:05;;;;;;;0.65;0.55;;;;;;;;;;5032177;28;20234;-81
2022/09/09 16:36:33;;;;;;;0.60;0.60;;;;;;;;;;5033098;28;20284;-81
2022/09/09 16:39:01;;;;;;;0.95;0.75;;;;;;;;;;5032467;28;20238;-81
2022/09/09 16:41:29;;;;;;;2.38;0.70;;;;;;;;;;5039136;28;20171;-81
2022/09/09 16:43:57;;;;;;;0.77;0.60;;;;;;;;;;5038627;28;20613;-84
2022/09/09 16:46:25;;;;;;;2.03;0.85;;;;;;;;;;5035836;28;20763;-83
2022/09/09 16:48:52;;;;;;;1.40;0.80;;;;;;;;;;5034266;28;20231;-84
2022/09/09 16:51:23;;;;;;;1.30;0.95;;;;;;;;;;5031902;28;20206;-83
2022/09/09 16:53:50;;;;;;;1.45;0.75;;;;;;;;;;5032018;28;20218;-84
2022/09/09 16:56:18;;;;;;;1.15;0.75;;;;;;;;;;5032391;28;20209;-86
2022/09/09 16:58:50;;;;;;;0.52;0.52;;;;;;;;;;5031929;28;20313;-84
2022/09/09 17:01:17;;;;;;;3.22;1.20;;;;;;;;;;5031765;28;20555;-84
2022/09/09 17:03:44;;;;;;;3.40;1.08;;;;;;;;;;5031533;28;20545;-84
2022/09/09 17:06:11;;;;;;;1.75;1.08;;;;;;;;;;5032431;28;20206;-84
2022/09/09 17:08:41;;;;;;;0.60;0.60;;;;;;;;;;5031671;28;20647;-83
2022/09/09 17:11:13;;;;;;;1.35;1.02;;;;;;;;;;5031499;28;20526;-85
2022/09/09 17:13:41;;;;;;;0.90;0.90;;;;;;;;;;5032207;28;20776;-84
2022/09/09 17:16:08;;;;;;;1.25;0.80;;;;;;;;;;5033863;28;20214;-83
2022/09/09 17:18:35;;;;;;;1.58;0.63;;;;;;;;;;5034644;28;20276;-84
2022/09/09 17:21:04;;;;;;;0.82;0.82;;;;;;;;;;5034893;28;20543;-83
2022/09/09 17:23:31;;;;;;;1.27;0.90;;;;;;;;;;5053249;28;20216;-84
2022/09/09 17:26:00;;;;;;;1.08;0.80;;;;;;;;;;5052272;28;20240;-83
2022/09/09 17:28:30;;;;;;;1.33;0.80;;;;;;;;;;5051809;28;20603;-86
2022/09/09 17:30:58;;;;;;;1.35;1.13;;;;;;;;;;5037450;28;20340;-82
2022/09/09 17:33:26;;;;;;;3.03;1.33;;;;;;;;;;5033013;28;20202;-84
2022/09/09 17:35:54;;;;;;;1.27;1.17;;;;;;;;;;5030638;28;20232;-84
2022/09/09 17:38:21;;;;;;;1.92;1.00;;;;;;;;;;5032827;28;20226;-83
2022/09/09 17:40:50;;;;;;;1.55;1.27;;;;;;;;;;5032492;28;20261;-84
2022/09/09 17:43:19;;;;;;;0.93;0.93;;;;;;;;;;5031699;28;20203;-84
2022/09/09 17:45:46;;;;;;;1.40;1.00;;;;;;;;;;5030294;28;20780;-84
2022/09/09 17:48:13;;;;;;;4.55;1.55;;;;;;;;;;5029674;28;20238;-84
2022/09/09 17:50:41;;;;;;;1.42;0.80;;;;;;;;;;5030735;28;20261;-84
2022/09/09 17:53:08;;;;;;;1.40;1.20;;;;;;;;;;5031693;28;20211;-83
2022/09/09 17:55:36;;;;;;;2.75;1.30;;;;;;;;;;5035328;28;20238;-83